sensor_id;sensor_type;location;lat;lon;timestamp;pressure;altitude;pressure_sealevel;temperature;humidity
81990;BME280;71485;51.638;-0.182;2024-01-07T00:02:19;101187.50;;;17.13;36.62
81990;BME280;71485;51.638;-0.182;2024-01-07T00:04:42;101188.72;;;17.04;36.71
81990;BME280;71485;51.638;-0.182;2024-01-07T00:07:11;101189.38;;;17.05;36.74
81990;BME280;71485;51.638;-0.182;2024-01-07T00:09:33;101191.42;;;17.06;36.72
81990;BME280;71485;51.638;-0.182;2024-01-07T00:12:00;101193.20;;;17.06;36.71
81990;BME280;71485;51.638;-0.182;2024-01-07T00:14:24;101197.00;;;17.23;36.77
81990;BME280;71485;51.638;-0.182;2024-01-07T00:16:50;101200.84;;;17.17;36.88
81990;BME280;71485;51.638;-0.182;2024-01-07T00:19:15;101206.97;;;16.96;36.80
81990;BME280;71485;51.638;-0.182;2024-01-07T00:21:41;101210.25;;;16.95;36.83
81990;BME280;71485;51.638;-0.182;2024-01-07T00:24:07;101207.50;;;16.87;36.96
81990;BME280;71485;51.638;-0.182;2024-01-07T00:26:34;101212.64;;;16.87;36.89
81990;BME280;71485;51.638;-0.182;2024-01-07T00:28:58;101215.49;;;16.87;36.89
81990;BME280;71485;51.638;-0.182;2024-01-07T00:31:24;101219.11;;;17.04;36.98
81990;BME280;71485;51.638;-0.182;2024-01-07T00:33:49;101222.79;;;16.87;36.92
81990;BME280;71485;51.638;-0.182;2024-01-07T00:36:15;101225.91;;;16.81;36.95
81990;BME280;71485;51.638;-0.182;2024-01-07T00:38:41;101224.56;;;16.78;36.96
81990;BME280;71485;51.638;-0.182;2024-01-07T00:41:06;101225.74;;;17.24;36.95
81990;BME280;71485;51.638;-0.182;2024-01-07T00:43:32;101225.46;;;16.75;36.97
81990;BME280;71485;51.638;-0.182;2024-01-07T00:45:59;101226.23;;;16.73;36.97
81990;BME280;71485;51.638;-0.182;2024-01-07T00:48:25;101227.59;;;16.69;37.00
81990;BME280;71485;51.638;-0.182;2024-01-07T00:50:49;101228.13;;;16.64;37.05
81990;BME280;71485;51.638;-0.182;2024-01-07T00:53:16;101228.22;;;16.91;36.97
81990;BME280;71485;51.638;-0.182;2024-01-07T00:55:40;101227.12;;;16.34;37.08
81990;BME280;71485;51.638;-0.182;2024-01-07T00:58:06;101227.24;;;17.05;37.08
81990;BME280;71485;51.638;-0.182;2024-01-07T01:00:32;101227.82;;;17.09;36.99
81990;BME280;71485;51.638;-0.182;2024-01-07T01:02:59;101228.24;;;16.86;36.96
81990;BME280;71485;51.638;-0.182;2024-01-07T01:05:23;101226.80;;;17.08;36.96
81990;BME280;71485;51.638;-0.182;2024-01-07T01:07:48;101231.97;;;16.85;36.93
81990;BME280;71485;51.638;-0.182;2024-01-07T01:10:14;101233.48;;;17.09;36.86
81990;BME280;71485;51.638;-0.182;2024-01-07T01:12:41;101235.65;;;16.63;36.82
81990;BME280;71485;51.638;-0.182;2024-01-07T01:15:06;101235.25;;;16.64;36.80
81990;BME280;71485;51.638;-0.182;2024-01-07T01:17:31;101237.60;;;16.67;36.71
81990;BME280;71485;51.638;-0.182;2024-01-07T01:19:57;101239.38;;;17.14;36.71
81990;BME280;71485;51.638;-0.182;2024-01-07T01:22:22;101242.02;;;17.09;36.75
81990;BME280;71485;51.638;-0.182;2024-01-07T01:24:50;101242.46;;;16.60;36.74
81990;BME280;71485;51.638;-0.182;2024-01-07T01:27:14;101243.81;;;17.11;36.67
81990;BME280;71485;51.638;-0.182;2024-01-07T01:29:40;101245.35;;;16.63;36.65
81990;BME280;71485;51.638;-0.182;2024-01-07T01:32:08;101247.80;;;17.04;36.74
81990;BME280;71485;51.638;-0.182;2024-01-07T01:34:31;101247.58;;;17.03;36.70
81990;BME280;71485;51.638;-0.182;2024-01-07T01:36:56;101246.52;;;16.77;36.71
81990;BME280;71485;51.638;-0.182;2024-01-07T01:39:23;101248.81;;;16.95;36.81
81990;BME280;71485;51.638;-0.182;2024-01-07T01:41:48;101252.63;;;16.48;36.80
81990;BME280;71485;51.638;-0.182;2024-01-07T01:44:15;101256.56;;;16.69;36.79
81990;BME280;71485;51.638;-0.182;2024-01-07T01:46:41;101259.27;;;16.64;36.86
81990;BME280;71485;51.638;-0.182;2024-01-07T01:49:07;101262.12;;;16.85;36.88
81990;BME280;71485;51.638;-0.182;2024-01-07T01:51:30;101264.05;;;16.88;36.82
81990;BME280;71485;51.638;-0.182;2024-01-07T01:53:58;101266.34;;;16.79;36.94
81990;BME280;71485;51.638;-0.182;2024-01-07T01:56:22;101265.18;;;16.81;36.91
81990;BME280;71485;51.638;-0.182;2024-01-07T01:58:47;101270.29;;;16.27;36.99
81990;BME280;71485;51.638;-0.182;2024-01-07T02:01:16;101271.06;;;16.51;37.03
81990;BME280;71485;51.638;-0.182;2024-01-07T02:03:40;101270.90;;;16.86;36.83
81990;BME280;71485;51.638;-0.182;2024-01-07T02:06:05;101273.22;;;16.80;36.88
81990;BME280;71485;51.638;-0.182;2024-01-07T02:08:30;101275.94;;;16.73;36.97
81990;BME280;71485;51.638;-0.182;2024-01-07T02:10:56;101277.30;;;16.29;36.89
81990;BME280;71485;51.638;-0.182;2024-01-07T02:13:21;101278.19;;;16.77;36.86
81990;BME280;71485;51.638;-0.182;2024-01-07T02:15:47;101278.71;;;16.73;36.87
81990;BME280;71485;51.638;-0.182;2024-01-07T02:18:13;101275.53;;;16.48;36.88
81990;BME280;71485;51.638;-0.182;2024-01-07T02:20:39;101274.45;;;16.70;36.86
81990;BME280;71485;51.638;-0.182;2024-01-07T02:23:04;101277.99;;;16.71;36.88
81990;BME280;71485;51.638;-0.182;2024-01-07T02:25:35;101277.56;;;16.46;36.86
81990;BME280;71485;51.638;-0.182;2024-01-07T02:27:55;101281.43;;;16.69;36.82
81990;BME280;71485;51.638;-0.182;2024-01-07T02:30:21;101287.02;;;16.66;36.85
81990;BME280;71485;51.638;-0.182;2024-01-07T02:32:48;101291.49;;;16.14;36.87
81990;BME280;71485;51.638;-0.182;2024-01-07T02:35:12;101296.42;;;16.59;36.85
81990;BME280;71485;51.638;-0.182;2024-01-07T02:37:38;101300.40;;;16.58;36.89
81990;BME280;71485;51.638;-0.182;2024-01-07T02:40:07;101300.64;;;16.61;36.87
81990;BME280;71485;51.638;-0.182;2024-01-07T02:42:30;101301.85;;;16.53;36.98
81990;BME280;71485;51.638;-0.182;2024-01-07T02:44:56;101301.02;;;16.55;36.97
81990;BME280;71485;51.638;-0.182;2024-01-07T02:47:21;101300.78;;;16.58;36.90
81990;BME280;71485;51.638;-0.182;2024-01-07T02:49:46;101302.44;;;16.59;36.92
81990;BME280;71485;51.638;-0.182;2024-01-07T02:52:14;101304.34;;;16.34;36.91
81990;BME280;71485;51.638;-0.182;2024-01-07T02:54:38;101305.11;;;16.79;36.98
81990;BME280;71485;51.638;-0.182;2024-01-07T02:57:04;101304.24;;;16.55;36.98
81990;BME280;71485;51.638;-0.182;2024-01-07T02:59:29;101304.85;;;16.59;36.84
81990;BME280;71485;51.638;-0.182;2024-01-07T03:01:56;101303.88;;;16.53;36.93
81990;BME280;71485;51.638;-0.182;2024-01-07T03:04:20;101303.21;;;16.76;36.93
81990;BME280;71485;51.638;-0.182;2024-01-07T03:06:46;101300.61;;;16.05;36.90
81990;BME280;71485;51.638;-0.182;2024-01-07T03:09:12;101299.45;;;16.44;36.98
81990;BME280;71485;51.638;-0.182;2024-01-07T03:11:39;101300.54;;;16.44;36.97
81990;BME280;71485;51.638;-0.182;2024-01-07T03:14:03;101301.44;;;16.45;36.93
81990;BME280;71485;51.638;-0.182;2024-01-07T03:16:29;101301.68;;;16.41;36.99
81990;BME280;71485;51.638;-0.182;2024-01-07T03:18:57;101301.15;;;16.17;37.07
81990;BME280;71485;51.638;-0.182;2024-01-07T03:21:22;101301.39;;;16.43;37.02
81990;BME280;71485;51.638;-0.182;2024-01-07T03:23:48;101302.18;;;15.90;37.03
81990;BME280;71485;51.638;-0.182;2024-01-07T03:26:13;101300.17;;;16.36;37.00
81990;BME280;71485;51.638;-0.182;2024-01-07T03:28:38;101300.15;;;16.36;36.96
81990;BME280;71485;51.638;-0.182;2024-01-07T03:31:04;101299.26;;;16.36;36.89
81990;BME280;71485;51.638;-0.182;2024-01-07T03:33:29;101305.24;;;16.07;36.91
81990;BME280;71485;51.638;-0.182;2024-01-07T03:35:54;101302.74;;;16.08;36.84
81990;BME280;71485;51.638;-0.182;2024-01-07T03:38:22;101305.68;;;16.01;36.96
81990;BME280;71485;51.638;-0.182;2024-01-07T03:40:45;101306.92;;;16.21;36.96
81990;BME280;71485;51.638;-0.182;2024-01-07T03:43:11;101307.30;;;16.21;36.90
81990;BME280;71485;51.638;-0.182;2024-01-07T03:45:38;101306.42;;;16.41;36.96
81990;BME280;71485;51.638;-0.182;2024-01-07T03:48:04;101309.23;;;16.18;36.92
81990;BME280;71485;51.638;-0.182;2024-01-07T03:50:28;101308.71;;;16.41;36.92
81990;BME280;71485;51.638;-0.182;2024-01-07T03:52:55;101308.42;;;16.13;36.96
81990;BME280;71485;51.638;-0.182;2024-01-07T03:55:20;101313.07;;;16.35;36.95
81990;BME280;71485;51.638;-0.182;2024-01-07T03:57:45;101314.68;;;16.05;37.02
81990;BME280;71485;51.638;-0.182;2024-01-07T04:00:11;101315.53;;;16.29;37.00
81990;BME280;71485;51.638;-0.182;2024-01-07T04:02:39;101316.59;;;16.27;37.01
81990;BME280;71485;51.638;-0.182;2024-01-07T04:05:02;101319.50;;;16.04;36.99
81990;BME280;71485;51.638;-0.182;2024-01-07T04:07:30;101321.01;;;16.24;37.01
81990;BME280;71485;51.638;-0.182;2024-01-07T04:09:54;101322.78;;;16.01;37.01
81990;BME280;71485;51.638;-0.182;2024-01-07T04:12:19;101324.61;;;15.99;37.01
81990;BME280;71485;51.638;-0.182;2024-01-07T04:14:46;101328.82;;;15.96;37.05
81990;BME280;71485;51.638;-0.182;2024-01-07T04:17:11;101329.99;;;16.22;37.02
81990;BME280;71485;51.638;-0.182;2024-01-07T04:19:38;101330.60;;;16.48;36.96
81990;BME280;71485;51.638;-0.182;2024-01-07T04:22:02;101334.56;;;15.96;37.01
81990;BME280;71485;51.638;-0.182;2024-01-07T04:24:28;101331.82;;;16.42;37.01
81990;BME280;71485;51.638;-0.182;2024-01-07T04:26:55;101335.66;;;16.18;36.98
81990;BME280;71485;51.638;-0.182;2024-01-07T04:29:19;101334.19;;;16.14;36.98
81990;BME280;71485;51.638;-0.182;2024-01-07T04:31:45;101337.79;;;15.90;36.97
81990;BME280;71485;51.638;-0.182;2024-01-07T04:34:11;101338.63;;;16.12;36.99
81990;BME280;71485;51.638;-0.182;2024-01-07T04:36:36;101341.12;;;16.11;36.94
81990;BME280;71485;51.638;-0.182;2024-01-07T04:39:04;101339.85;;;15.84;36.91
81990;BME280;71485;51.638;-0.182;2024-01-07T04:41:27;101340.15;;;15.90;36.74
81990;BME280;71485;51.638;-0.182;2024-01-07T04:43:53;101340.95;;;15.87;36.68
81990;BME280;71485;51.638;-0.182;2024-01-07T04:46:20;101340.76;;;16.33;36.70
81990;BME280;71485;51.638;-0.182;2024-01-07T04:48:45;101341.16;;;15.84;36.62
81990;BME280;71485;51.638;-0.182;2024-01-07T04:51:10;101345.04;;;16.03;36.66
81990;BME280;71485;51.638;-0.182;2024-01-07T04:53:38;101343.29;;;16.08;36.57
81990;BME280;71485;51.638;-0.182;2024-01-07T04:56:04;101342.32;;;15.84;36.55
81990;BME280;71485;51.638;-0.182;2024-01-07T04:58:27;101346.08;;;15.80;36.57
81990;BME280;71485;51.638;-0.182;2024-01-07T05:01:00;101349.72;;;15.83;36.49
81990;BME280;71485;51.638;-0.182;2024-01-07T05:03:19;101350.73;;;16.32;36.47
81990;BME280;71485;51.638;-0.182;2024-01-07T05:05:44;101345.20;;;15.40;36.41
81990;BME280;71485;51.638;-0.182;2024-01-07T05:08:10;101350.53;;;16.06;36.47
81990;BME280;71485;51.638;-0.182;2024-01-07T05:10:36;101350.88;;;16.01;36.53
81990;BME280;71485;51.638;-0.182;2024-01-07T05:13:04;101350.76;;;15.77;36.51
81990;BME280;71485;51.638;-0.182;2024-01-07T05:15:27;101348.76;;;16.26;36.44
81990;BME280;71485;51.638;-0.182;2024-01-07T05:17:53;101351.50;;;15.58;36.41
81990;BME280;71485;51.638;-0.182;2024-01-07T05:20:18;101352.54;;;15.90;36.35
81990;BME280;71485;51.638;-0.182;2024-01-07T05:22:44;101361.03;;;15.94;36.76
81990;BME280;71485;51.638;-0.182;2024-01-07T05:25:10;101367.58;;;16.01;36.97
81990;BME280;71485;51.638;-0.182;2024-01-07T05:27:37;101367.79;;;16.42;36.98
81990;BME280;71485;51.638;-0.182;2024-01-07T05:30:01;101369.55;;;16.32;36.95
81990;BME280;71485;51.638;-0.182;2024-01-07T05:32:27;101376.61;;;16.38;36.97
81990;BME280;71485;51.638;-0.182;2024-01-07T05:34:52;101377.79;;;16.42;37.04
81990;BME280;71485;51.638;-0.182;2024-01-07T05:37:18;101377.72;;;16.45;37.03
81990;BME280;71485;51.638;-0.182;2024-01-07T05:39:45;101375.90;;;16.16;37.10
81990;BME280;71485;51.638;-0.182;2024-01-07T05:42:10;101379.98;;;16.39;37.12
81990;BME280;71485;51.638;-0.182;2024-01-07T05:44:35;101385.90;;;16.51;37.07
81990;BME280;71485;51.638;-0.182;2024-01-07T05:47:03;101381.41;;;16.46;37.07
81990;BME280;71485;51.638;-0.182;2024-01-07T05:49:27;101385.44;;;16.89;37.18
81990;BME280;71485;51.638;-0.182;2024-01-07T05:51:58;101388.20;;;16.43;37.14
81990;BME280;71485;51.638;-0.182;2024-01-07T05:54:18;101390.53;;;16.69;37.13
81990;BME280;71485;51.638;-0.182;2024-01-07T05:56:44;101393.36;;;15.98;37.14
81990;BME280;71485;51.638;-0.182;2024-01-07T05:59:12;101398.88;;;16.44;37.21
81990;BME280;71485;51.638;-0.182;2024-01-07T06:01:36;101400.98;;;16.47;37.13
81990;BME280;71485;51.638;-0.182;2024-01-07T06:04:01;101406.17;;;16.53;37.07
81990;BME280;71485;51.638;-0.182;2024-01-07T06:06:26;101413.45;;;16.47;37.18
81990;BME280;71485;51.638;-0.182;2024-01-07T06:08:53;101413.17;;;16.53;37.17
81990;BME280;71485;51.638;-0.182;2024-01-07T06:11:18;101413.32;;;16.58;37.16
81990;BME280;71485;51.638;-0.182;2024-01-07T06:13:43;101415.36;;;16.32;37.16
81990;BME280;71485;51.638;-0.182;2024-01-07T06:16:09;101411.54;;;16.63;37.06
81990;BME280;71485;51.638;-0.182;2024-01-07T06:18:36;101418.89;;;16.68;37.18
81990;BME280;71485;51.638;-0.182;2024-01-07T06:21:00;101425.82;;;16.31;37.27
81990;BME280;71485;51.638;-0.182;2024-01-07T06:23:26;101428.05;;;16.00;37.27
81990;BME280;71485;51.638;-0.182;2024-01-07T06:25:52;101425.38;;;16.09;37.04
81990;BME280;71485;51.638;-0.182;2024-01-07T06:28:17;101425.19;;;16.29;36.98
81990;BME280;71485;51.638;-0.182;2024-01-07T06:30:44;101429.77;;;15.78;36.93
81990;BME280;71485;51.638;-0.182;2024-01-07T06:33:09;101435.81;;;16.27;36.83
81990;BME280;71485;51.638;-0.182;2024-01-07T06:35:34;101440.53;;;16.49;36.77
81990;BME280;71485;51.638;-0.182;2024-01-07T06:38:02;101440.66;;;16.21;36.77
81990;BME280;71485;51.638;-0.182;2024-01-07T06:40:26;101449.08;;;16.20;36.74
81990;BME280;71485;51.638;-0.182;2024-01-07T06:42:52;101449.51;;;15.94;36.67
81990;BME280;71485;51.638;-0.182;2024-01-07T06:45:18;101449.43;;;16.14;36.59
81990;BME280;71485;51.638;-0.182;2024-01-07T06:47:43;101450.86;;;15.65;36.57
81990;BME280;71485;51.638;-0.182;2024-01-07T06:50:09;101456.20;;;16.10;36.56
81990;BME280;71485;51.638;-0.182;2024-01-07T06:52:37;101460.49;;;16.11;36.49
81990;BME280;71485;51.638;-0.182;2024-01-07T06:55:00;101460.51;;;16.58;36.45
81990;BME280;71485;51.638;-0.182;2024-01-07T06:57:26;101464.86;;;16.05;36.50
81990;BME280;71485;51.638;-0.182;2024-01-07T06:59:52;101466.98;;;16.00;36.51
81990;BME280;71485;51.638;-0.182;2024-01-07T07:02:20;101474.46;;;16.23;36.51
81990;BME280;71485;51.638;-0.182;2024-01-07T07:04:43;101480.64;;;15.48;36.53
81990;BME280;71485;51.638;-0.182;2024-01-07T07:07:08;101481.36;;;16.19;36.46
81990;BME280;71485;51.638;-0.182;2024-01-07T07:09:34;101484.24;;;16.18;36.43
81990;BME280;71485;51.638;-0.182;2024-01-07T07:12:01;101484.93;;;16.14;36.39
81990;BME280;71485;51.638;-0.182;2024-01-07T07:14:25;101486.43;;;16.13;36.40
81990;BME280;71485;51.638;-0.182;2024-01-07T07:16:51;101487.08;;;15.86;36.44
81990;BME280;71485;51.638;-0.182;2024-01-07T07:19:17;101494.33;;;16.12;36.34
81990;BME280;71485;51.638;-0.182;2024-01-07T07:21:43;101495.54;;;15.41;36.27
81990;BME280;71485;51.638;-0.182;2024-01-07T07:24:13;101496.58;;;15.85;36.30
81990;BME280;71485;51.638;-0.182;2024-01-07T07:26:35;101497.45;;;15.87;36.20
81990;BME280;71485;51.638;-0.182;2024-01-07T07:28:59;101502.19;;;16.06;36.22
81990;BME280;71485;51.638;-0.182;2024-01-07T07:31:25;101503.13;;;16.06;36.19
81990;BME280;71485;51.638;-0.182;2024-01-07T07:33:51;101503.38;;;16.02;36.20
81990;BME280;71485;51.638;-0.182;2024-01-07T07:36:18;101503.69;;;16.02;36.18
81990;BME280;71485;51.638;-0.182;2024-01-07T07:38:43;101506.44;;;15.73;36.27
81990;BME280;71485;51.638;-0.182;2024-01-07T07:41:08;101512.50;;;15.72;36.26
81990;BME280;71485;51.638;-0.182;2024-01-07T07:43:34;101515.18;;;15.97;36.27
81990;BME280;71485;51.638;-0.182;2024-01-07T07:46:01;101516.35;;;15.73;36.25
81990;BME280;71485;51.638;-0.182;2024-01-07T07:48:27;101521.36;;;16.18;36.30
81990;BME280;71485;51.638;-0.182;2024-01-07T07:50:51;101520.08;;;15.94;36.35
81990;BME280;71485;51.638;-0.182;2024-01-07T07:53:21;101523.44;;;15.70;36.39
81990;BME280;71485;51.638;-0.182;2024-01-07T07:55:42;101528.92;;;15.71;36.32
81990;BME280;71485;51.638;-0.182;2024-01-07T07:58:08;101534.82;;;15.92;36.35
81990;BME280;71485;51.638;-0.182;2024-01-07T08:00:33;101538.91;;;15.92;36.34
81990;BME280;71485;51.638;-0.182;2024-01-07T08:03:01;101540.66;;;15.90;36.26
81990;BME280;71485;51.638;-0.182;2024-01-07T08:05:25;101544.06;;;16.17;36.23
81990;BME280;71485;51.638;-0.182;2024-01-07T08:07:51;101545.20;;;15.68;36.20
81990;BME280;71485;51.638;-0.182;2024-01-07T08:10:16;101547.50;;;15.66;36.22
81990;BME280;71485;51.638;-0.182;2024-01-07T08:12:42;101550.44;;;15.61;36.20
81990;BME280;71485;51.638;-0.182;2024-01-07T08:15:08;101550.79;;;15.84;36.25
81990;BME280;71485;51.638;-0.182;2024-01-07T08:17:33;101553.08;;;15.83;36.30
81990;BME280;71485;51.638;-0.182;2024-01-07T08:19:59;101553.35;;;15.83;36.30
81990;BME280;71485;51.638;-0.182;2024-01-07T08:22:26;101555.29;;;15.81;36.42
81990;BME280;71485;51.638;-0.182;2024-01-07T08:24:52;101557.33;;;16.06;36.48
81990;BME280;71485;51.638;-0.182;2024-01-07T08:27:17;101557.06;;;15.80;36.60
81990;BME280;71485;51.638;-0.182;2024-01-07T08:29:42;101559.92;;;15.57;36.53
81990;BME280;71485;51.638;-0.182;2024-01-07T08:32:07;101561.93;;;15.83;36.54
81990;BME280;71485;51.638;-0.182;2024-01-07T08:34:35;101562.88;;;15.81;36.59
81990;BME280;71485;51.638;-0.182;2024-01-07T08:36:59;101571.23;;;16.08;36.53
81990;BME280;71485;51.638;-0.182;2024-01-07T08:39:27;101569.59;;;15.64;36.52
81990;BME280;71485;51.638;-0.182;2024-01-07T08:41:51;101575.17;;;15.86;36.56
81990;BME280;71485;51.638;-0.182;2024-01-07T08:44:17;101573.04;;;15.59;36.61
81990;BME280;71485;51.638;-0.182;2024-01-07T08:46:44;101575.10;;;15.35;36.60
81990;BME280;71485;51.638;-0.182;2024-01-07T08:49:08;101576.98;;;15.59;36.64
81990;BME280;71485;51.638;-0.182;2024-01-07T08:51:33;101580.08;;;16.07;36.68
81990;BME280;71485;51.638;-0.182;2024-01-07T08:53:59;101582.94;;;15.62;36.67
81990;BME280;71485;51.638;-0.182;2024-01-07T08:56:24;101583.60;;;16.06;36.74
81990;BME280;71485;51.638;-0.182;2024-01-07T08:58:50;101583.34;;;15.58;36.74
81990;BME280;71485;51.638;-0.182;2024-01-07T09:01:17;101583.50;;;15.78;36.83
81990;BME280;71485;51.638;-0.182;2024-01-07T09:03:41;101584.29;;;15.54;36.84
81990;BME280;71485;51.638;-0.182;2024-01-07T09:06:07;101589.80;;;15.76;36.88
81990;BME280;71485;51.638;-0.182;2024-01-07T09:08:33;101585.37;;;16.05;36.85
81990;BME280;71485;51.638;-0.182;2024-01-07T09:11:05;101592.93;;;15.83;36.84
81990;BME280;71485;51.638;-0.182;2024-01-07T09:13:24;101595.63;;;15.85;36.77
81990;BME280;71485;51.638;-0.182;2024-01-07T09:15:50;101596.80;;;15.61;36.83
81990;BME280;71485;51.638;-0.182;2024-01-07T09:18:16;101603.60;;;16.01;38.12
81990;BME280;71485;51.638;-0.182;2024-01-07T09:20:41;101607.03;;;15.47;38.71
81990;BME280;71485;51.638;-0.182;2024-01-07T09:23:09;101612.63;;;16.37;39.03
81990;BME280;71485;51.638;-0.182;2024-01-07T09:25:36;101613.04;;;17.02;37.96
81990;BME280;71485;51.638;-0.182;2024-01-07T09:27:58;101613.62;;;17.43;37.09
81990;BME280;71485;51.638;-0.182;2024-01-07T09:30:24;101618.98;;;17.87;36.56
81990;BME280;71485;51.638;-0.182;2024-01-07T09:32:50;101615.08;;;18.02;35.89
81990;BME280;71485;51.638;-0.182;2024-01-07T09:35:15;101617.09;;;18.30;35.43
81990;BME280;71485;51.638;-0.182;2024-01-07T09:37:41;101619.10;;;16.77;36.12
81990;BME280;71485;51.638;-0.182;2024-01-07T09:40:10;101624.41;;;16.86;35.66
81990;BME280;71485;51.638;-0.182;2024-01-07T09:42:34;101633.57;;;17.09;35.66
81990;BME280;71485;51.638;-0.182;2024-01-07T09:45:02;101632.08;;;17.23;35.63
81990;BME280;71485;51.638;-0.182;2024-01-07T09:47:27;101634.71;;;16.89;36.03
81990;BME280;71485;51.638;-0.182;2024-01-07T09:49:49;101633.97;;;17.15;38.12
81990;BME280;71485;51.638;-0.182;2024-01-07T09:52:15;101642.52;;;17.05;39.50
81990;BME280;71485;51.638;-0.182;2024-01-07T09:54:41;101641.86;;;16.88;40.03
81990;BME280;71485;51.638;-0.182;2024-01-07T09:57:07;101648.04;;;17.13;39.83
81990;BME280;71485;51.638;-0.182;2024-01-07T09:59:32;101654.15;;;17.38;39.33
81990;BME280;71485;51.638;-0.182;2024-01-07T10:01:58;101656.84;;;17.17;38.98
81990;BME280;71485;51.638;-0.182;2024-01-07T10:04:24;101653.96;;;16.92;38.69
81990;BME280;71485;51.638;-0.182;2024-01-07T10:06:48;101656.93;;;17.03;38.26
81990;BME280;71485;51.638;-0.182;2024-01-07T10:09:16;101661.36;;;17.19;38.11
81990;BME280;71485;51.638;-0.182;2024-01-07T10:11:39;101658.62;;;17.02;39.06
81990;BME280;71485;51.638;-0.182;2024-01-07T10:14:05;101658.90;;;16.80;39.14
81990;BME280;71485;51.638;-0.182;2024-01-07T10:16:30;101661.31;;;16.99;39.30
81990;BME280;71485;51.638;-0.182;2024-01-07T10:18:55;101663.18;;;17.00;39.09
81990;BME280;71485;51.638;-0.182;2024-01-07T10:21:22;101666.69;;;17.02;39.15
81990;BME280;71485;51.638;-0.182;2024-01-07T10:23:46;101666.69;;;16.77;39.11
81990;BME280;71485;51.638;-0.182;2024-01-07T10:26:13;101664.51;;;17.28;38.39
81990;BME280;71485;51.638;-0.182;2024-01-07T10:28:37;101662.10;;;17.24;37.48
81990;BME280;71485;51.638;-0.182;2024-01-07T10:31:08;101664.24;;;16.76;37.13
81990;BME280;71485;51.638;-0.182;2024-01-07T10:33:31;101665.62;;;17.19;37.04
81990;BME280;71485;51.638;-0.182;2024-01-07T10:35:59;101668.97;;;16.73;36.76
81990;BME280;71485;51.638;-0.182;2024-01-07T10:38:20;101664.06;;;17.25;36.37
81990;BME280;71485;51.638;-0.182;2024-01-07T10:40:46;101666.50;;;16.80;36.32
81990;BME280;71485;51.638;-0.182;2024-01-07T10:43:10;101666.02;;;17.27;36.30
81990;BME280;71485;51.638;-0.182;2024-01-07T10:45:38;101664.52;;;17.25;36.19
81990;BME280;71485;51.638;-0.182;2024-01-07T10:48:04;101661.70;;;17.23;36.27
81990;BME280;71485;51.638;-0.182;2024-01-07T10:50:27;101665.60;;;16.93;36.31
81990;BME280;71485;51.638;-0.182;2024-01-07T10:52:59;101667.07;;;17.15;36.41
81990;BME280;71485;51.638;-0.182;2024-01-07T10:55:19;101669.95;;;17.17;36.29
81990;BME280;71485;51.638;-0.182;2024-01-07T10:57:45;101668.11;;;16.94;36.39
81990;BME280;71485;51.638;-0.182;2024-01-07T11:00:11;101672.28;;;17.22;36.32
81990;BME280;71485;51.638;-0.182;2024-01-07T11:02:45;101669.29;;;17.26;36.19
81990;BME280;71485;51.638;-0.182;2024-01-07T11:05:07;101668.50;;;17.01;36.28
81990;BME280;71485;51.638;-0.182;2024-01-07T11:07:34;101678.80;;;17.04;36.13
81990;BME280;71485;51.638;-0.182;2024-01-07T11:10:01;101672.93;;;16.78;36.16
81990;BME280;71485;51.638;-0.182;2024-01-07T11:12:17;101677.42;;;17.28;36.30
81990;BME280;71485;51.638;-0.182;2024-01-07T11:14:44;101676.91;;;16.83;36.51
81990;BME280;71485;51.638;-0.182;2024-01-07T11:17:09;101678.90;;;17.36;36.32
81990;BME280;71485;51.638;-0.182;2024-01-07T11:19:36;101683.90;;;17.10;36.53
81990;BME280;71485;51.638;-0.182;2024-01-07T11:24:39;101681.79;;;17.38;36.68
81990;BME280;71485;51.638;-0.182;2024-01-07T11:26:52;101689.74;;;16.92;36.74
81990;BME280;71485;51.638;-0.182;2024-01-07T11:29:17;101686.30;;;17.20;36.89
81990;BME280;71485;51.638;-0.182;2024-01-07T11:31:45;101688.35;;;16.76;37.39
81990;BME280;71485;51.638;-0.182;2024-01-07T11:34:09;101693.17;;;16.99;37.66
81990;BME280;71485;51.638;-0.182;2024-01-07T11:36:35;101693.16;;;17.43;37.69
81990;BME280;71485;51.638;-0.182;2024-01-07T11:39:02;101693.27;;;17.26;37.73
81990;BME280;71485;51.638;-0.182;2024-01-07T11:41:26;101697.64;;;17.50;37.87
81990;BME280;71485;51.638;-0.182;2024-01-07T11:43:55;101698.56;;;17.27;38.00
81990;BME280;71485;51.638;-0.182;2024-01-07T11:46:18;101698.49;;;17.33;38.07
81990;BME280;71485;51.638;-0.182;2024-01-07T11:48:45;101695.92;;;17.11;37.70
81990;BME280;71485;51.638;-0.182;2024-01-07T11:51:08;101698.72;;;17.68;37.83
81990;BME280;71485;51.638;-0.182;2024-01-07T11:53:35;101696.28;;;17.46;37.44
81990;BME280;71485;51.638;-0.182;2024-01-07T11:56:01;101700.43;;;17.27;37.64
81990;BME280;71485;51.638;-0.182;2024-01-07T11:58:25;101700.97;;;17.57;37.65
81990;BME280;71485;51.638;-0.182;2024-01-07T12:00:51;101703.13;;;17.39;37.56
81990;BME280;71485;51.638;-0.182;2024-01-07T12:03:16;101709.58;;;17.41;37.48
81990;BME280;71485;51.638;-0.182;2024-01-07T12:05:42;101708.63;;;17.41;37.37
81990;BME280;71485;51.638;-0.182;2024-01-07T12:08:09;101710.82;;;17.40;37.21
81990;BME280;71485;51.638;-0.182;2024-01-07T12:10:33;101709.92;;;17.36;37.17
81990;BME280;71485;51.638;-0.182;2024-01-07T12:12:59;101712.09;;;17.32;37.27
81990;BME280;71485;51.638;-0.182;2024-01-07T12:15:24;101708.60;;;17.30;37.06
81990;BME280;71485;51.638;-0.182;2024-01-07T12:17:56;101708.58;;;17.27;37.14
81990;BME280;71485;51.638;-0.182;2024-01-07T12:20:16;101700.46;;;17.26;37.23
81990;BME280;71485;51.638;-0.182;2024-01-07T12:22:41;101705.25;;;17.27;37.17
81990;BME280;71485;51.638;-0.182;2024-01-07T12:25:10;101707.97;;;17.59;36.70
81990;BME280;71485;51.638;-0.182;2024-01-07T12:27:34;101709.21;;;17.37;36.22
81990;BME280;71485;51.638;-0.182;2024-01-07T12:30:00;101708.74;;;17.35;35.96
81990;BME280;71485;51.638;-0.182;2024-01-07T12:32:26;101702.59;;;17.58;35.62
81990;BME280;71485;51.638;-0.182;2024-01-07T12:34:50;101704.79;;;17.47;35.18